createdAt,value
2017-12-22T00:02:09.735Z,16.60
2017-12-22T00:04:38.382Z,14.73
2017-12-22T00:07:06.313Z,16.37
2017-12-22T00:09:34.252Z,35.00
2017-12-22T00:12:03.819Z,32.67
2017-12-22T00:14:31.775Z,16.23
2017-12-22T00:16:59.770Z,14.27
2017-12-22T00:19:27.715Z,16.27
2017-12-22T00:21:55.622Z,22.45
2017-12-22T00:24:23.589Z,26.98
2017-12-22T00:26:51.756Z,16.98
2017-12-22T00:29:19.720Z,16.92
2017-12-22T00:31:47.630Z,17.42
2017-12-22T00:34:15.571Z,14.65
2017-12-22T00:36:43.873Z,18.85
2017-12-22T00:39:12.231Z,17.55
2017-12-22T00:41:40.115Z,17.52
2017-12-22T00:44:08.125Z,17.62
2017-12-22T00:46:35.993Z,21.17
2017-12-22T00:49:03.916Z,20.23
2017-12-22T00:51:31.802Z,17.42
2017-12-22T00:53:59.709Z,21.58
2017-12-22T00:56:31.910Z,15.45
2017-12-22T00:58:59.849Z,19.77
2017-12-22T01:01:29.968Z,14.45
2017-12-22T01:03:57.940Z,15.73
2017-12-22T01:06:25.978Z,24.25
2017-12-22T01:08:53.847Z,21.15
2017-12-22T01:11:21.780Z,16.80
2017-12-22T01:13:49.664Z,36.50
2017-12-22T01:16:23.174Z,17.60
2017-12-22T01:18:57.476Z,18.37
2017-12-22T01:21:25.405Z,18.90
2017-12-22T01:23:53.300Z,24.05
2017-12-22T01:26:21.239Z,19.58
2017-12-22T01:28:49.125Z,15.48
2017-12-22T01:31:17.054Z,23.95
2017-12-22T01:33:44.948Z,14.35
2017-12-22T01:36:12.987Z,12.30
2017-12-22T01:38:41.637Z,16.50
2017-12-22T01:41:09.569Z,17.25
2017-12-22T01:43:37.442Z,16.67
2017-12-22T01:46:05.368Z,14.65
2017-12-22T01:48:33.239Z,16.85
2017-12-22T01:51:01.174Z,20.00
2017-12-22T01:53:29.044Z,19.12
2017-12-22T01:55:56.969Z,17.65
2017-12-22T01:58:24.850Z,25.95
2017-12-22T02:00:52.794Z,26.60
2017-12-22T02:03:20.687Z,21.10
2017-12-22T02:05:48.626Z,21.85
2017-12-22T02:08:16.513Z,22.77
2017-12-22T02:10:44.422Z,20.42
2017-12-22T02:13:12.361Z,23.90
2017-12-22T02:15:40.272Z,17.95
2017-12-22T02:18:08.212Z,17.10
2017-12-22T02:20:36.120Z,19.65
2017-12-22T02:23:04.092Z,16.30
2017-12-22T02:25:31.984Z,18.27
2017-12-22T02:28:00.358Z,34.05
2017-12-22T02:30:29.049Z,15.85
2017-12-22T02:32:57.002Z,17.90
2017-12-22T02:35:24.904Z,15.20
2017-12-22T02:37:52.838Z,15.15
2017-12-22T02:40:20.730Z,19.30
2017-12-22T02:42:48.667Z,20.00
2017-12-22T02:45:16.579Z,49.15
2017-12-22T02:47:44.525Z,32.50
2017-12-22T02:50:12.407Z,13.13
2017-12-22T02:52:40.376Z,19.42
2017-12-22T02:55:08.250Z,26.62
2017-12-22T02:57:36.272Z,12.02
2017-12-22T03:00:04.314Z,19.15
2017-12-22T03:02:33.037Z,12.60
2017-12-22T03:05:00.952Z,14.18
2017-12-22T03:07:28.877Z,17.20
2017-12-22T03:09:56.790Z,18.10
2017-12-22T03:12:24.742Z,21.73
2017-12-22T03:14:52.643Z,15.65
2017-12-22T03:17:20.564Z,13.20
2017-12-22T03:19:48.501Z,14.38
2017-12-22T03:22:16.432Z,14.05
2017-12-22T03:24:44.308Z,18.50
2017-12-22T03:27:12.223Z,12.13
2017-12-22T03:29:40.144Z,14.98
2017-12-22T03:32:08.047Z,13.75
2017-12-22T03:34:35.997Z,13.20
2017-12-22T03:37:03.873Z,12.37
2017-12-22T03:39:31.799Z,22.25
2017-12-22T03:41:59.674Z,12.88
2017-12-22T03:44:27.608Z,11.35
2017-12-22T03:46:55.492Z,10.70
2017-12-22T03:49:23.420Z,11.20
2017-12-22T03:51:51.301Z,10.23
2017-12-22T03:54:19.263Z,12.55
2017-12-22T03:56:47.248Z,12.43
2017-12-22T03:59:15.175Z,11.45
2017-12-22T04:01:43.063Z,14.00
2017-12-22T04:04:11.236Z,10.50
2017-12-22T04:06:39.135Z,15.73
2017-12-22T04:09:07.068Z,12.13
2017-12-22T04:11:34.961Z,16.15
2017-12-22T04:14:02.891Z,13.10
2017-12-22T04:16:30.777Z,13.07
2017-12-22T04:18:58.723Z,11.05
2017-12-22T04:21:26.615Z,10.75
2017-12-22T04:23:54.486Z,9.07
2017-12-22T04:26:26.017Z,8.98
2017-12-22T04:28:53.907Z,12.27
2017-12-22T04:31:21.842Z,14.32
2017-12-22T04:33:49.727Z,13.07
2017-12-22T04:36:17.666Z,10.05
2017-12-22T04:38:46.318Z,9.82
2017-12-22T04:41:14.254Z,9.75
2017-12-22T04:43:42.140Z,20.35
2017-12-22T04:46:10.892Z,9.80
2017-12-22T04:48:38.804Z,10.57
2017-12-22T04:51:06.752Z,9.98
2017-12-22T04:53:34.664Z,9.70
2017-12-22T04:56:03.805Z,9.75
2017-12-22T04:58:31.719Z,8.15
2017-12-22T05:00:59.652Z,11.90
2017-12-22T05:03:27.553Z,11.93
2017-12-22T05:05:55.516Z,8.25
2017-12-22T05:08:23.450Z,9.05
2017-12-22T05:10:51.406Z,9.23
2017-12-22T05:13:19.390Z,8.48
2017-12-22T05:15:47.343Z,8.98
2017-12-22T05:18:15.243Z,9.65
2017-12-22T05:20:43.208Z,7.53
2017-12-22T05:23:11.163Z,9.57
2017-12-22T05:25:39.097Z,10.95
2017-12-22T05:28:06.993Z,24.45
2017-12-22T05:30:34.892Z,6.90
2017-12-22T05:33:02.894Z,8.00
2017-12-22T05:35:30.782Z,8.80
2017-12-22T05:37:59.509Z,7.57
2017-12-22T05:40:27.444Z,7.82
2017-12-22T05:42:55.425Z,9.25
2017-12-22T05:45:23.330Z,7.60
2017-12-22T05:47:52.460Z,20.60
2017-12-22T05:50:20.436Z,12.80
2017-12-22T05:52:48.406Z,8.20
2017-12-22T05:55:16.298Z,7.55
2017-12-22T05:57:44.274Z,5.45
2017-12-22T06:00:12.961Z,7.25
2017-12-22T06:02:44.115Z,8.00
2017-12-22T06:05:16.018Z,6.62
2017-12-22T06:07:47.945Z,8.73
2017-12-22T06:10:18.409Z,7.53
2017-12-22T06:12:50.779Z,11.20
2017-12-22T06:15:21.969Z,7.10
2017-12-22T06:17:53.308Z,10.27
2017-12-22T06:20:23.745Z,8.30
2017-12-22T06:22:56.141Z,7.70
2017-12-22T06:25:26.958Z,7.35
2017-12-22T06:27:55.163Z,9.57
2017-12-22T06:30:23.096Z,5.90
2017-12-22T06:32:51.839Z,5.07
2017-12-22T06:35:19.836Z,11.27
2017-12-22T06:37:47.847Z,7.28
2017-12-22T06:40:15.752Z,7.05
2017-12-22T06:42:43.721Z,8.43
2017-12-22T06:45:11.641Z,4.72
2017-12-22T06:47:40.335Z,4.30
2017-12-22T06:50:08.345Z,6.12
2017-12-22T06:52:36.243Z,5.05
2017-12-22T06:55:04.218Z,4.62
2017-12-22T06:57:32.241Z,6.53
2017-12-22T07:00:00.199Z,7.18
2017-12-22T07:02:28.113Z,5.35
2017-12-22T07:04:56.082Z,5.05
2017-12-22T07:07:23.972Z,5.55
2017-12-22T07:09:51.926Z,5.05
2017-12-22T07:12:19.852Z,3.90
2017-12-22T07:14:47.799Z,7.43
2017-12-22T07:17:15.739Z,7.78
2017-12-22T07:19:43.746Z,4.72
2017-12-22T07:22:11.674Z,5.70
2017-12-22T07:24:39.622Z,4.15
2017-12-22T07:27:08.800Z,4.82
2017-12-22T07:29:36.760Z,5.40
2017-12-22T07:32:04.674Z,4.05
2017-12-22T07:34:32.637Z,4.85
2017-12-22T07:37:00.753Z,3.80
2017-12-22T07:39:29.860Z,5.57
2017-12-22T07:41:57.865Z,4.25
2017-12-22T07:44:25.824Z,3.58
2017-12-22T07:46:53.787Z,4.53
2017-12-22T07:49:21.726Z,4.32
2017-12-22T07:51:49.699Z,4.00
2017-12-22T07:54:17.653Z,4.40
2017-12-22T07:56:45.721Z,4.90
2017-12-22T07:59:13.623Z,4.22
2017-12-22T08:01:41.569Z,5.65
2017-12-22T08:04:09.500Z,4.75
2017-12-22T08:06:37.472Z,5.40
2017-12-22T08:09:05.430Z,4.50
2017-12-22T08:11:33.448Z,4.18
2017-12-22T08:14:01.507Z,4.50
2017-12-22T08:16:29.552Z,4.18
2017-12-22T08:18:57.471Z,4.12
2017-12-22T08:21:26.249Z,4.32
2017-12-22T08:23:54.190Z,5.07
2017-12-22T08:26:22.258Z,4.75
2017-12-22T08:28:50.142Z,4.75
2017-12-22T08:31:18.121Z,5.90
2017-12-22T08:33:46.034Z,3.55
2017-12-22T08:36:14.029Z,4.75
2017-12-22T08:38:41.928Z,4.10
2017-12-22T08:41:09.866Z,4.35
2017-12-22T08:43:37.764Z,5.30
2017-12-22T08:46:05.668Z,4.50
2017-12-22T08:48:33.618Z,5.03
2017-12-22T08:51:01.514Z,3.22
2017-12-22T08:53:29.453Z,2.40
2017-12-22T08:56:00.037Z,3.50
2017-12-22T08:58:27.993Z,3.35
2017-12-22T09:00:55.889Z,4.12
2017-12-22T09:03:23.838Z,8.43
2017-12-22T09:05:51.781Z,4.37
2017-12-22T09:08:20.484Z,4.62
2017-12-22T09:10:48.398Z,3.90
2017-12-22T09:13:16.340Z,6.20
2017-12-22T09:15:44.254Z,6.87
2017-12-22T09:18:12.207Z,4.72
2017-12-22T09:20:40.104Z,5.47
2017-12-22T09:23:08.037Z,6.40
2017-12-22T09:25:39.594Z,4.80
2017-12-22T09:28:07.555Z,3.60
2017-12-22T09:30:37.430Z,5.12
2017-12-22T09:33:06.483Z,4.35
2017-12-22T09:35:34.890Z,6.90
2017-12-22T09:38:06.814Z,4.15
2017-12-22T09:40:35.614Z,4.37
2017-12-22T09:43:03.537Z,4.03
2017-12-22T09:45:31.489Z,4.70
2017-12-22T09:48:00.285Z,6.60
2017-12-22T09:50:28.191Z,13.60
2017-12-22T09:52:56.151Z,17.87
2017-12-22T09:55:24.061Z,12.05
2017-12-22T09:57:51.953Z,6.72
2017-12-22T10:00:19.895Z,5.05
2017-12-22T10:02:47.822Z,3.05
2017-12-22T10:05:15.761Z,5.07
2017-12-22T10:07:44.432Z,2.55
2017-12-22T10:10:12.379Z,2.35
2017-12-22T10:12:40.265Z,2.62
2017-12-22T10:15:08.222Z,2.60
2017-12-22T10:17:36.125Z,2.72
2017-12-22T10:20:04.277Z,6.18
2017-12-22T10:22:32.505Z,10.63
2017-12-22T10:25:00.441Z,14.93
2017-12-22T10:27:30.600Z,9.57
2017-12-22T10:29:58.546Z,11.60
2017-12-22T10:32:29.115Z,7.85
2017-12-22T10:34:57.824Z,8.63
2017-12-22T10:37:29.305Z,4.80
2017-12-22T10:39:58.132Z,7.75
2017-12-22T10:42:26.055Z,12.55
2017-12-22T10:44:54.000Z,9.13
2017-12-22T10:47:21.887Z,9.70
2017-12-22T10:49:49.843Z,6.30
2017-12-22T10:52:17.767Z,6.55
2017-12-22T10:54:46.281Z,5.72
2017-12-22T10:57:14.191Z,8.75
2017-12-22T10:59:42.227Z,5.35
2017-12-22T11:02:10.148Z,10.45
2017-12-22T11:04:38.072Z,6.80
2017-12-22T11:07:09.662Z,6.35
2017-12-22T11:09:38.334Z,6.25
2017-12-22T11:12:06.300Z,5.85
2017-12-22T11:14:34.203Z,5.95
2017-12-22T11:17:02.162Z,10.20
2017-12-22T11:19:30.073Z,6.18
2017-12-22T11:21:58.001Z,5.30
2017-12-22T11:24:26.662Z,5.28
2017-12-22T11:26:54.614Z,5.18
2017-12-22T11:29:22.507Z,4.32
2017-12-22T11:31:50.444Z,4.30
2017-12-22T11:34:18.334Z,5.20
2017-12-22T11:36:47.400Z,4.20
2017-12-22T11:39:15.292Z,4.28
2017-12-22T11:41:43.238Z,3.28
2017-12-22T11:44:11.126Z,3.83
2017-12-22T11:46:39.074Z,4.00
2017-12-22T11:49:06.952Z,3.92
2017-12-22T11:51:34.887Z,6.72
2017-12-22T11:54:02.781Z,5.07
2017-12-22T11:56:30.780Z,6.05
2017-12-22T11:58:58.675Z,4.40
2017-12-22T12:01:26.619Z,3.10
2017-12-22T12:03:54.517Z,3.30
2017-12-22T12:06:26.416Z,2.60
2017-12-22T12:08:54.306Z,2.20
2017-12-22T12:11:22.236Z,5.65
2017-12-22T12:13:50.279Z,1.90
2017-12-22T12:16:18.180Z,2.25
2017-12-22T12:18:46.222Z,2.20
2017-12-22T12:21:14.877Z,2.78
2017-12-22T12:23:42.865Z,2.90
2017-12-22T12:26:10.756Z,2.30
2017-12-22T12:28:38.690Z,2.50
2017-12-22T12:31:06.579Z,2.40
2017-12-22T12:33:34.534Z,2.08
2017-12-22T12:36:10.848Z,2.30
2017-12-22T12:38:38.784Z,2.42
2017-12-22T12:41:06.660Z,2.50
2017-12-22T12:43:35.364Z,3.05
2017-12-22T12:46:03.340Z,2.85
2017-12-22T12:48:31.425Z,2.70
2017-12-22T12:50:59.360Z,2.22
2017-12-22T12:53:28.120Z,2.53
2017-12-22T12:55:56.015Z,3.42
2017-12-22T12:58:23.973Z,2.83
2017-12-22T13:00:51.865Z,5.20
2017-12-22T13:03:19.799Z,3.72
2017-12-22T13:05:47.712Z,4.62
2017-12-22T13:08:15.647Z,4.55
2017-12-22T13:10:43.542Z,4.60
2017-12-22T13:13:11.468Z,3.62
2017-12-22T13:15:39.368Z,4.03
2017-12-22T13:18:07.252Z,4.75
2017-12-22T13:20:35.239Z,5.15
2017-12-22T13:23:03.123Z,4.00
2017-12-22T13:25:31.106Z,3.70
2017-12-22T13:28:00.116Z,4.05
2017-12-22T13:30:28.137Z,4.22
2017-12-22T13:32:56.974Z,4.60
2017-12-22T13:35:24.919Z,3.72
2017-12-22T13:37:52.948Z,3.72
2017-12-22T13:40:20.889Z,4.50
2017-12-22T13:42:48.796Z,3.92
2017-12-22T13:45:16.739Z,3.25
2017-12-22T13:47:44.656Z,3.75
2017-12-22T13:50:12.599Z,3.30
2017-12-22T13:52:40.480Z,2.45
2017-12-22T13:55:08.446Z,3.05
2017-12-22T13:57:36.801Z,3.15
2017-12-22T14:00:04.723Z,2.53
2017-12-22T14:02:32.631Z,3.65
2017-12-22T14:05:00.579Z,4.30
2017-12-22T14:07:28.495Z,5.45
2017-12-22T14:09:56.451Z,3.67
2017-12-22T14:12:25.145Z,2.55
2017-12-22T14:14:53.867Z,6.87
2017-12-22T14:17:21.763Z,1.80
2017-12-22T14:19:49.703Z,2.62
2017-12-22T14:22:17.684Z,1.85
2017-12-22T14:24:45.808Z,1.50
2017-12-22T14:27:13.928Z,4.35
2017-12-22T14:29:41.856Z,1.60
2017-12-22T14:32:09.815Z,2.28
2017-12-22T14:34:37.706Z,1.73
2017-12-22T14:37:05.657Z,5.60
2017-12-22T14:39:33.540Z,4.05
2017-12-22T14:42:01.468Z,2.22
2017-12-22T14:44:29.363Z,2.22
2017-12-22T14:46:57.279Z,3.00
2017-12-22T14:49:25.349Z,2.45
2017-12-22T14:51:53.285Z,5.72
2017-12-22T14:54:21.260Z,2.12
2017-12-22T14:56:49.386Z,1.70
2017-12-22T14:59:18.020Z,2.45
2017-12-22T15:01:46.724Z,2.40
2017-12-22T15:04:14.586Z,2.95
2017-12-22T15:06:43.286Z,2.67
2017-12-22T15:09:11.241Z,2.95
2017-12-22T15:11:39.165Z,2.35
2017-12-22T15:14:07.043Z,3.17
2017-12-22T15:16:34.964Z,3.58
2017-12-22T15:19:02.834Z,3.37
2017-12-22T15:21:30.774Z,3.53
2017-12-22T15:23:58.662Z,6.40
2017-12-22T15:26:26.686Z,7.85
2017-12-22T15:28:54.689Z,3.20
2017-12-22T15:31:22.576Z,6.20
2017-12-22T15:33:50.501Z,3.12
2017-12-22T15:36:18.416Z,3.85
2017-12-22T15:38:46.415Z,6.68
2017-12-22T15:41:14.319Z,5.90
2017-12-22T15:43:42.243Z,5.03
2017-12-22T15:46:10.148Z,4.90
2017-12-22T15:48:38.125Z,6.00
2017-12-22T15:51:06.020Z,5.28
2017-12-22T15:53:36.401Z,5.93
2017-12-22T15:56:05.376Z,4.47
2017-12-22T15:58:34.277Z,3.95
2017-12-22T16:01:02.352Z,3.97
2017-12-22T16:03:31.125Z,4.47
2017-12-22T16:06:01.029Z,4.40
2017-12-22T16:08:31.690Z,5.03
2017-12-22T16:10:59.767Z,5.25
2017-12-22T16:13:27.705Z,4.93
2017-12-22T16:16:04.813Z,4.55
2017-12-22T16:18:32.750Z,3.67
2017-12-22T16:21:01.052Z,4.37
2017-12-22T16:23:29.799Z,6.18
2017-12-22T16:25:57.962Z,5.70
2017-12-22T16:28:26.449Z,6.32
2017-12-22T16:30:54.719Z,7.50
2017-12-22T16:33:24.200Z,6.60
2017-12-22T16:35:52.425Z,7.03
2017-12-22T16:38:20.736Z,9.52
2017-12-22T16:40:48.961Z,8.52
2017-12-22T16:43:17.233Z,5.95
2017-12-22T16:45:46.743Z,7.93
2017-12-22T16:48:16.506Z,6.30
2017-12-22T16:50:44.831Z,10.55
2017-12-22T16:53:14.581Z,8.85
2017-12-22T16:55:42.530Z,9.77
2017-12-22T16:58:10.578Z,8.82
2017-12-22T17:00:38.541Z,8.88
2017-12-22T17:03:06.446Z,10.02
2017-12-22T17:05:34.411Z,9.73
2017-12-22T17:08:02.316Z,12.23
2017-12-22T17:10:30.275Z,19.15
2017-12-22T17:12:58.180Z,14.35
2017-12-22T17:15:26.285Z,13.70
2017-12-22T17:17:54.185Z,14.10
2017-12-22T17:20:22.129Z,12.25
2017-12-22T17:22:54.476Z,9.23
2017-12-22T17:25:24.129Z,11.38
2017-12-22T17:27:53.594Z,11.32
2017-12-22T17:30:21.550Z,15.38
2017-12-22T17:32:49.445Z,10.10
2017-12-22T17:35:18.152Z,13.57
2017-12-22T17:37:46.042Z,22.98
2017-12-22T17:40:13.984Z,22.55
2017-12-22T17:42:41.917Z,22.40
2017-12-22T17:45:13.891Z,15.80
2017-12-22T17:47:42.806Z,24.00
2017-12-22T17:50:10.912Z,16.58
2017-12-22T17:52:43.331Z,19.30
2017-12-22T17:55:14.691Z,15.68
2017-12-22T17:57:44.240Z,23.35
2017-12-22T18:00:12.173Z,16.42
2017-12-22T18:02:40.347Z,16.42
2017-12-22T18:05:08.308Z,15.27
2017-12-22T18:07:38.714Z,19.55
2017-12-22T18:10:11.994Z,18.00
2017-12-22T18:12:40.100Z,22.80
2017-12-22T18:15:08.807Z,17.77
2017-12-22T18:17:37.550Z,15.27
2017-12-22T18:20:05.470Z,16.85
2017-12-22T18:22:33.441Z,17.48
2017-12-22T18:25:03.122Z,27.13
2017-12-22T18:27:31.968Z,17.65
2017-12-22T18:29:59.874Z,18.15
2017-12-22T18:32:27.840Z,20.80
2017-12-22T18:34:55.785Z,14.73
2017-12-22T18:37:23.753Z,24.40
2017-12-22T18:39:51.671Z,25.77
2017-12-22T18:42:19.651Z,23.92
2017-12-22T18:44:49.826Z,18.15
2017-12-22T18:47:20.224Z,20.88
2017-12-22T18:49:48.134Z,19.48
2017-12-22T18:52:16.121Z,19.65
2017-12-22T18:54:44.806Z,20.55
2017-12-22T18:57:12.957Z,26.48
2017-12-22T18:59:40.877Z,26.12
2017-12-22T19:02:08.810Z,22.23
2017-12-22T19:04:36.829Z,23.58
2017-12-22T19:07:04.752Z,26.58
2017-12-22T19:09:33.412Z,23.48
2017-12-22T19:12:02.189Z,23.00
2017-12-22T19:14:30.148Z,19.98
2017-12-22T19:16:59.047Z,25.00
2017-12-22T19:19:27.017Z,18.37
2017-12-22T19:21:54.932Z,19.73
2017-12-22T19:24:22.918Z,17.35
2017-12-22T19:26:54.680Z,33.72
2017-12-22T19:29:22.833Z,23.20
2017-12-22T19:31:50.823Z,26.65
2017-12-22T19:34:19.552Z,29.73
2017-12-22T19:36:47.633Z,38.03
2017-12-22T19:39:15.625Z,33.83
2017-12-22T19:41:44.571Z,35.60
2017-12-22T19:44:12.604Z,30.17
2017-12-22T19:46:40.572Z,28.05
2017-12-22T19:49:08.561Z,33.45
2017-12-22T19:51:38.547Z,28.30
2017-12-22T19:54:06.697Z,23.98
2017-12-22T19:56:34.592Z,28.90
2017-12-22T19:59:04.236Z,34.70
2017-12-22T20:01:34.410Z,23.27
2017-12-22T20:04:03.277Z,18.35
2017-12-22T20:06:32.065Z,27.92
2017-12-22T20:09:00.807Z,29.65
2017-12-22T20:11:29.697Z,21.95
2017-12-22T20:13:58.166Z,21.50
2017-12-22T20:16:26.741Z,26.60
2017-12-22T20:18:55.354Z,22.98
2017-12-22T20:21:24.174Z,21.25
2017-12-22T20:23:52.766Z,27.17
2017-12-22T20:26:21.223Z,30.37
2017-12-22T20:28:50.178Z,20.77
2017-12-22T20:31:18.686Z,28.50
2017-12-22T20:33:48.108Z,21.75
2017-12-22T20:36:17.551Z,20.62
2017-12-22T20:38:47.094Z,20.02
2017-12-22T20:41:15.090Z,27.40
2017-12-22T20:43:43.541Z,23.62
2017-12-22T20:46:13.042Z,25.27
2017-12-22T20:48:41.917Z,28.27
2017-12-22T20:51:11.023Z,30.77
2017-12-22T20:53:39.578Z,30.10
2017-12-22T20:56:08.729Z,23.98
2017-12-22T20:58:37.236Z,25.25
2017-12-22T21:01:05.936Z,24.50
2017-12-22T21:03:34.618Z,23.92
2017-12-22T21:06:03.213Z,29.23
2017-12-22T21:08:31.158Z,23.62
2017-12-22T21:11:00.782Z,22.27
2017-12-22T21:13:29.393Z,21.30
2017-12-22T21:15:58.003Z,24.83
2017-12-22T21:18:26.381Z,21.83
2017-12-22T21:20:55.135Z,25.90
2017-12-22T21:23:24.600Z,24.95
2017-12-22T21:25:53.597Z,30.42
2017-12-22T21:28:22.068Z,21.12
2017-12-22T21:30:50.708Z,22.77
2017-12-22T21:33:19.667Z,19.95
2017-12-22T21:35:49.282Z,19.45
2017-12-22T21:38:17.395Z,18.60
2017-12-22T21:40:47.269Z,19.15
2017-12-22T21:43:16.720Z,18.87
2017-12-22T21:45:45.599Z,19.48
2017-12-22T21:48:13.745Z,17.30
2017-12-22T21:50:42.659Z,21.55
2017-12-22T21:53:11.841Z,22.10
2017-12-22T21:55:40.521Z,25.17
2017-12-22T21:58:09.625Z,18.58
2017-12-22T22:00:38.148Z,18.42
2017-12-22T22:03:07.117Z,21.73
2017-12-22T22:05:36.750Z,16.48
2017-12-22T22:08:06.950Z,20.02
2017-12-22T22:10:35.313Z,18.98
2017-12-22T22:13:04.173Z,29.45
2017-12-22T22:15:33.112Z,23.23
2017-12-22T22:18:01.013Z,17.42
2017-12-22T22:20:28.946Z,17.35
2017-12-22T22:22:56.950Z,16.60
2017-12-22T22:25:25.016Z,25.45
2017-12-22T22:27:52.980Z,20.88
2017-12-22T22:30:20.884Z,21.00
2017-12-22T22:32:48.837Z,17.73
2017-12-22T22:35:16.733Z,17.25
2017-12-22T22:37:45.452Z,17.87
2017-12-22T22:40:13.394Z,24.42
2017-12-22T22:42:41.337Z,18.77
2017-12-22T22:45:10.787Z,18.48
2017-12-22T22:47:38.737Z,18.90
2017-12-22T22:50:06.624Z,25.83
2017-12-22T22:52:34.586Z,25.40
2017-12-22T22:55:02.530Z,27.02
2017-12-22T22:57:30.490Z,34.85
2017-12-22T22:59:58.392Z,26.83
2017-12-22T23:02:26.407Z,29.50
2017-12-22T23:04:54.310Z,35.72
2017-12-22T23:07:22.326Z,35.50
2017-12-22T23:09:50.344Z,34.97
2017-12-22T23:12:18.281Z,34.03
2017-12-22T23:14:46.220Z,39.95
2017-12-22T23:17:14.176Z,46.88
2017-12-22T23:19:42.072Z,35.10
2017-12-22T23:22:10.030Z,32.83
2017-12-22T23:24:37.973Z,36.72
2017-12-22T23:27:06.638Z,37.65
2017-12-22T23:29:34.582Z,31.05
2017-12-22T23:32:02.508Z,33.70
2017-12-22T23:34:31.240Z,35.92
2017-12-22T23:37:00.371Z,30.58
2017-12-22T23:39:28.355Z,30.35
2017-12-22T23:41:57.007Z,30.70
2017-12-22T23:44:24.958Z,25.73
2017-12-22T23:46:52.872Z,26.40
2017-12-22T23:49:20.837Z,26.42
2017-12-22T23:51:48.728Z,36.28
2017-12-22T23:54:16.715Z,35.55
2017-12-22T23:56:44.617Z,35.13
2017-12-22T23:59:12.569Z,38.03
